Time;durP1;ratioP1;P1;durP2;ratioP2;P2;SDS_P1;SDS_P2;PMS_P1;PMS_P2;Temp;Humidity;BMP_temperature;BMP_pressure;BME280_temperature;BME280_humidity;BME280_pressure;Samples;Min_cycle;Max_cycle;Signal;HPM_P1;HPM_P2
2021/04/16 00:00:46;;;;;;;7.85;7.10;;;3.80;59.60;;;;;;4954650;29;20175;-89
2021/04/16 00:03:13;;;;;;;8.35;7.53;;;3.80;59.70;;;;;;4937119;29;20567;-87
2021/04/16 00:05:40;;;;;;;7.93;7.30;;;3.80;59.40;;;;;;4954477;29;20221;-90
2021/04/16 00:08:08;;;;;;;7.63;7.13;;;3.80;59.40;;;;;;4955565;29;20509;-89
2021/04/16 00:10:38;;;;;;;8.95;8.32;;;3.80;59.50;;;;;;4954510;29;20217;-88
2021/04/16 00:13:05;;;;;;;7.80;6.93;;;3.80;59.40;;;;;;4937657;29;20532;-88
2021/04/16 00:15:34;;;;;;;8.38;7.82;;;3.70;59.60;;;;;;4942271;29;20170;-88
2021/04/16 00:18:01;;;;;;;7.40;6.75;;;3.50;59.70;;;;;;4967896;28;20238;-88
2021/04/16 00:20:28;;;;;;;8.98;7.88;;;3.60;59.90;;;;;;4952967;29;20630;-87
2021/04/16 00:22:54;;;;;;;8.65;7.95;;;3.60;60.20;;;;;;4969629;29;20170;-88
2021/04/16 00:25:22;;;;;;;7.47;7.03;;;3.70;60.10;;;;;;4957715;28;20319;-88
2021/04/16 00:27:47;;;;;;;9.77;7.65;;;3.70;59.80;;;;;;4940581;29;20631;-88
2021/04/16 00:30:14;;;;;;;9.80;8.87;;;3.50;59.90;;;;;;4956437;29;20213;-88
2021/04/16 00:32:40;;;;;;;8.40;7.25;;;3.50;60.60;;;;;;4940179;29;20201;-88
2021/04/16 00:35:08;;;;;;;8.02;7.32;;;3.30;61.10;;;;;;4957397;29;20269;-88
2021/04/16 00:37:33;;;;;;;7.05;6.45;;;3.40;61.70;;;;;;4957466;29;20651;-89
2021/04/16 00:39:59;;;;;;;8.27;7.67;;;3.50;61.60;;;;;;4940079;29;20205;-89
2021/04/16 00:42:25;;;;;;;8.57;7.80;;;;;;;;;;4957350;29;20167;-88
2021/04/16 00:44:51;;;;;;;8.57;7.50;;;3.70;59.80;;;;;;4957433;29;20185;-90
2021/04/16 00:47:21;;;;;;;8.68;7.18;;;3.70;60.20;;;;;;4940310;29;20930;-88
2021/04/16 00:49:51;;;;;;;8.07;7.47;;;3.50;60.10;;;;;;4939922;29;20268;-89
2021/04/16 00:52:28;;;;;;;8.23;7.63;;;3.60;60.30;;;;;;4940030;29;20317;-89
2021/04/16 00:54:54;;;;;;;7.20;6.53;;;2.40;59.40;;;;;;4957354;29;20166;-89
2021/04/16 00:57:20;;;;;;;8.40;7.78;;;3.80;60.50;;;;;;4957100;29;20178;-88
2021/04/16 00:59:51;;;;;;;10.35;7.35;;;3.50;60.10;;;;;;4939901;29;20197;-89
2021/04/16 01:02:17;;;;;;;8.10;7.00;;;3.80;60.40;;;;;;4957169;28;20195;-88
2021/04/16 01:04:42;;;;;;;8.10;7.40;;;3.80;60.50;;;;;;4956841;29;20316;-88
2021/04/16 01:07:09;;;;;;;8.60;8.10;;;3.90;61.10;;;;;;4939767;29;20651;-87
2021/04/16 01:09:36;;;;;;;8.18;7.57;;;4.00;60.00;;;;;;4939733;29;20206;-88
2021/04/16 01:12:08;;;;;;;8.00;7.30;;;4.00;59.80;;;;;;4956853;29;20171;-88
2021/04/16 01:14:38;;;;;;;8.10;7.50;;;4.00;59.70;;;;;;4956613;29;20241;-90
2021/04/16 01:17:04;;;;;;;8.48;7.78;;;3.90;59.90;;;;;;4957245;29;20167;-88
2021/04/16 01:19:40;;;;;;;8.43;7.70;;;3.80;60.10;;;;;;4958050;29;20198;-88
2021/04/16 01:22:33;;;;;;;8.90;8.10;;;4.00;60.10;;;;;;4959834;29;20166;-87
2021/04/16 01:25:00;;;;;;;7.75;7.15;;;4.00;60.10;;;;;;4940126;29;20178;-89
2021/04/16 01:27:28;;;;;;;8.40;7.60;;;4.10;60.50;;;;;;4939489;28;20179;-89
2021/04/16 01:29:54;;;;;;;8.77;7.97;;;4.40;61.00;;;;;;4939433;29;20641;-89
2021/04/16 01:32:25;;;;;;;8.05;7.50;;;3.60;60.20;;;;;;4939374;29;20186;-89
2021/04/16 01:34:50;;;;;;;8.45;7.70;;;3.80;61.10;;;;;;4939161;29;20206;-87
2021/04/16 01:37:16;;;;;;;7.93;7.40;;;4.00;60.70;;;;;;4956306;29;20598;-88
2021/04/16 01:39:41;;;;;;;7.80;7.13;;;4.20;60.50;;;;;;4955245;29;20538;-88
2021/04/16 01:42:07;;;;;;;8.00;7.40;;;4.20;60.30;;;;;;4956424;29;20163;-89
2021/04/16 01:44:33;;;;;;;8.77;8.07;;;4.20;59.90;;;;;;4956489;29;20171;-89
2021/04/16 01:47:07;;;;;;;8.77;8.07;;;4.20;60.00;;;;;;4956265;29;20425;-88
2021/04/16 01:49:41;;;;;;;9.35;8.60;;;4.10;60.00;;;;;;4956157;29;20749;-88
2021/04/16 01:52:11;;;;;;;9.57;8.88;;;4.10;60.20;;;;;;4956242;29;20181;-88
2021/04/16 01:54:42;;;;;;;8.90;8.20;;;4.10;60.00;;;;;;4938609;29;20166;-88
2021/04/16 01:57:16;;;;;;;8.23;7.63;;;4.10;60.70;;;;;;4956168;29;20189;-88
2021/04/16 01:59:43;;;;;;;9.10;8.40;;;4.20;60.40;;;;;;4955234;29;20175;-87
2021/04/16 02:02:16;;;;;;;9.45;8.73;;;4.10;60.30;;;;;;4956103;29;20202;-88
2021/04/16 02:04:42;;;;;;;8.88;8.05;;;4.30;60.00;;;;;;4939362;29;20701;-88
2021/04/16 02:07:08;;;;;;;8.00;7.40;;;4.30;60.10;;;;;;4955817;29;20171;-89
2021/04/16 02:09:36;;;;;;;8.63;7.93;;;4.30;60.10;;;;;;4938734;29;20261;-88
2021/04/16 02:12:04;;;;;;;9.40;8.50;;;4.30;60.10;;;;;;4938586;29;20578;-88
2021/04/16 02:14:31;;;;;;;9.50;8.60;;;4.40;60.10;;;;;;4955699;29;20253;-89
2021/04/16 02:17:02;;;;;;;9.05;8.43;;;4.30;59.60;;;;;;4938486;29;20185;-89
2021/04/16 02:19:28;;;;;;;10.40;8.73;;;4.40;59.60;;;;;;4955738;29;20177;-89
2021/04/16 02:21:54;;;;;;;8.80;8.07;;;4.40;59.70;;;;;;4955646;29;20170;-89
2021/04/16 02:24:20;;;;;;;8.50;8.00;;;4.50;59.60;;;;;;4938552;29;20185;-89
2021/04/16 02:26:46;;;;;;;9.90;9.00;;;4.60;59.20;;;;;;4955393;29;20174;-89
2021/04/16 02:29:19;;;;;;;8.80;8.00;;;4.60;59.20;;;;;;4955592;29;20749;-89
2021/04/16 02:31:45;;;;;;;11.57;8.57;;;4.60;59.10;;;;;;4955499;29;20190;-89
2021/04/16 02:34:27;;;;;;;9.40;8.83;;;4.50;58.70;;;;;;4938081;29;20201;-89
2021/04/16 02:36:58;;;;;;;9.30;8.45;;;4.60;58.90;;;;;;4938424;29;20261;-89
2021/04/16 02:39:24;;;;;;;8.77;8.25;;;4.60;58.70;;;;;;4937880;29;20205;-88
2021/04/16 02:41:50;;;;;;;9.90;9.10;;;4.50;58.90;;;;;;4955315;29;20178;-87
2021/04/16 02:44:16;;;;;;;9.23;8.30;;;4.30;59.10;;;;;;4955335;29;20511;-89
2021/04/16 02:46:42;;;;;;;10.63;9.73;;;4.30;59.40;;;;;;4938246;29;20611;-89
2021/04/16 02:49:07;;;;;;;10.23;9.37;;;4.30;59.60;;;;;;4937951;29;20214;-89
2021/04/16 02:51:33;;;;;;;9.70;8.80;;;4.30;59.70;;;;;;4937980;29;20174;-88
2021/04/16 02:53:59;;;;;;;10.53;9.70;;;4.00;59.20;;;;;;4954031;29;20178;-88
2021/04/16 02:56:25;;;;;;;9.93;8.93;;;4.20;59.40;;;;;;4955538;29;20177;-88
2021/04/16 02:58:51;;;;;;;9.25;8.55;;;4.20;59.60;;;;;;4953984;29;20768;-88
2021/04/16 03:01:17;;;;;;;10.35;9.32;;;4.10;59.50;;;;;;4955452;29;20167;-88
2021/04/16 03:03:43;;;;;;;9.30;8.50;;;4.30;59.60;;;;;;4954851;28;20163;-88
2021/04/16 03:06:09;;;;;;;9.40;8.53;;;4.40;59.50;;;;;;4954942;29;20186;-87
2021/04/16 03:08:35;;;;;;;9.10;8.40;;;4.40;59.30;;;;;;4937863;29;20380;-88
2021/04/16 03:11:03;;;;;;;10.05;9.10;;;4.30;59.20;;;;;;4937648;29;20217;-87
2021/04/16 03:13:28;;;;;;;9.35;8.65;;;4.20;59.40;;;;;;4955194;29;20170;-88
2021/04/16 03:15:54;;;;;;;10.13;9.53;;;4.20;59.60;;;;;;4955524;29;20175;-88
2021/04/16 03:18:19;;;;;;;10.87;9.73;;;4.20;59.90;;;;;;4954853;29;20504;-89
2021/04/16 03:20:46;;;;;;;11.13;10.23;;;4.20;59.80;;;;;;4954973;29;20173;-88
2021/04/16 03:23:12;;;;;;;10.50;9.43;;;4.10;60.00;;;;;;4954928;29;20181;-88
2021/04/16 03:25:38;;;;;;;9.65;9.02;;;4.00;60.10;;;;;;4938018;29;20643;-88
2021/04/16 03:28:05;;;;;;;9.33;8.60;;;3.80;61.10;;;;;;4957834;29;20170;-88
2021/04/16 03:30:32;;;;;;;10.68;9.77;;;3.80;60.80;;;;;;4956237;29;20516;-88
2021/04/16 03:32:57;;;;;;;10.50;9.57;;;4.10;60.90;;;;;;4954828;29;20532;-89
2021/04/16 03:35:23;;;;;;;10.20;9.30;;;;;;;;;;4939146;29;20182;-90
2021/04/16 03:37:50;;;;;;;10.68;9.70;;;4.20;59.80;;;;;;4954845;29;20170;-88
2021/04/16 03:40:19;;;;;;;10.20;9.35;;;4.10;60.60;;;;;;4955109;29;20230;-87
2021/04/16 03:42:45;;;;;;;9.48;8.77;;;4.10;60.50;;;;;;4938612;29;20171;-87
2021/04/16 03:45:13;;;;;;;9.00;8.40;;;4.10;60.50;;;;;;4953808;29;20518;-88
2021/04/16 03:47:40;;;;;;;10.88;9.90;;;4.30;60.50;;;;;;4937599;29;20177;-88
2021/04/16 03:50:06;;;;;;;10.23;9.35;;;4.40;60.20;;;;;;4937716;29;20217;-88
2021/04/16 03:52:31;;;;;;;10.43;9.57;;;4.40;59.70;;;;;;4956468;28;20178;-88
2021/04/16 03:54:57;;;;;;;11.20;10.07;;;4.20;59.90;;;;;;4941475;29;20182;-89
2021/04/16 03:57:23;;;;;;;11.30;10.30;;;4.10;60.30;;;;;;4941125;29;20181;-88
2021/04/16 03:59:49;;;;;;;9.77;8.97;;;4.10;60.80;;;;;;4958386;29;20267;-88
2021/04/16 04:02:14;;;;;;;10.90;9.30;;;4.10;60.80;;;;;;4941116;29;20175;-88
2021/04/16 04:04:40;;;;;;;11.20;10.17;;;4.10;60.70;;;;;;4958249;29;20632;-89
2021/04/16 04:07:06;;;;;;;10.80;9.70;;;4.20;60.80;;;;;;4941015;29;20171;-89
2021/04/16 04:09:33;;;;;;;9.77;8.80;;;4.20;61.00;;;;;;4958217;29;20201;-89
2021/04/16 04:11:59;;;;;;;10.38;9.38;;;4.20;61.20;;;;;;4941180;29;20175;-88
2021/04/16 04:14:24;;;;;;;10.00;9.30;;;4.20;61.30;;;;;;4958637;29;20249;-89
2021/04/16 04:16:58;;;;;;;11.13;10.23;;;4.20;61.60;;;;;;4958960;29;20170;-89
2021/04/16 04:19:27;;;;;;;11.30;10.55;;;4.20;61.60;;;;;;4940936;29;20205;-88
2021/04/16 04:21:54;;;;;;;10.00;9.38;;;4.10;61.50;;;;;;4941192;29;20171;-87
2021/04/16 04:24:20;;;;;;;11.10;10.20;;;4.10;61.70;;;;;;4957707;29;20191;-89
2021/04/16 04:26:47;;;;;;;11.10;10.17;;;4.10;62.20;;;;;;4940919;29;20566;-89
2021/04/16 04:29:13;;;;;;;10.23;9.35;;;4.10;62.40;;;;;;4940654;29;20418;-88
2021/04/16 04:31:46;;;;;;;17.70;10.23;;;4.20;62.40;;;;;;4958132;29;20175;-89
2021/04/16 04:34:23;;;;;;;10.52;9.52;;;4.20;62.40;;;;;;4957866;29;20169;-88
2021/04/16 04:36:51;;;;;;;10.15;9.35;;;4.00;62.50;;;;;;4940296;29;20210;-87
2021/04/16 04:39:18;;;;;;;12.10;10.75;;;4.00;62.80;;;;;;4957878;29;20233;-88
2021/04/16 04:41:44;;;;;;;11.65;10.38;;;3.90;62.70;;;;;;4958161;29;20171;-89
2021/04/16 04:44:10;;;;;;;13.13;11.55;;;3.70;62.60;;;;;;4957196;29;20257;-88
2021/04/16 04:46:37;;;;;;;10.65;9.65;;;2.60;61.40;;;;;;4940145;29;20281;-89
2021/04/16 04:49:04;;;;;;;11.80;10.80;;;5.90;66.40;;;;;;4958169;29;20238;-85
2021/04/16 04:51:30;;;;;;;10.05;9.05;;;4.00;63.00;;;;;;4957475;29;20340;-88
2021/04/16 04:53:55;;;;;;;10.97;10.00;;;4.00;62.50;;;;;;4940495;29;20202;-88
2021/04/16 04:56:21;;;;;;;11.20;10.10;;;3.80;62.50;;;;;;4957314;29;20170;-90
2021/04/16 04:58:49;;;;;;;11.07;10.07;;;3.80;62.70;;;;;;4940635;29;20178;-88
2021/04/16 05:01:15;;;;;;;12.80;10.13;;;5.80;65.30;;;;;;4940510;29;20223;-87
2021/04/16 05:03:41;;;;;;;11.87;10.63;;;3.80;63.40;;;;;;4956563;28;20174;-88
2021/04/16 05:06:06;;;;;;;11.07;10.07;;;3.80;62.70;;;;;;4957787;29;20166;-88
2021/04/16 05:08:32;;;;;;;10.60;9.67;;;3.90;63.10;;;;;;4940780;29;20171;-88
2021/04/16 05:10:57;;;;;;;11.80;9.90;;;4.00;63.00;;;;;;4957200;29;20213;-88
2021/04/16 05:13:23;;;;;;;9.33;8.63;;;4.00;63.10;;;;;;4957843;29;20171;-88
2021/04/16 05:15:49;;;;;;;10.37;9.33;;;4.10;62.90;;;;;;4957768;29;20179;-86
2021/04/16 05:18:14;;;;;;;9.97;9.27;;;4.20;63.00;;;;;;4956965;28;20205;-88
2021/04/16 05:20:40;;;;;;;10.23;9.43;;;4.20;63.10;;;;;;4940483;29;20241;-89
2021/04/16 05:23:05;;;;;;;10.00;9.20;;;4.20;62.80;;;;;;4958502;29;20627;-86
2021/04/16 05:25:31;;;;;;;13.53;9.53;;;4.40;62.80;;;;;;4957766;29;20270;-87
2021/04/16 05:27:56;;;;;;;12.17;10.13;;;4.40;62.20;;;;;;4957332;29;20185;-88
2021/04/16 05:30:22;;;;;;;9.37;8.67;;;4.50;61.90;;;;;;4939205;29;20210;-89
2021/04/16 05:35:34;;;;;;;10.30;9.40;;;4.70;62.30;;;;;;4953219;29;20422;-87
2021/04/16 05:37:59;;;;;;;12.13;9.67;;;4.80;61.10;;;;;;4957710;29;20182;-88
2021/04/16 05:40:27;;;;;;;10.90;9.83;;;4.90;60.50;;;;;;4958222;29;20188;-89
2021/04/16 05:42:55;;;;;;;9.40;8.63;;;5.10;60.20;;;;;;4598508;28;9999777;-88
2021/04/16 05:45:21;;;;;;;9.68;8.88;;;5.20;59.80;;;;;;4934044;29;20274;-90
2021/04/16 05:47:47;;;;;;;9.57;8.63;;;5.50;59.40;;;;;;4936622;29;20506;-88
2021/04/16 05:50:14;;;;;;;11.33;9.33;;;7.70;60.60;;;;;;4935256;29;20207;-89
2021/04/16 05:52:40;;;;;;;10.05;9.10;;;6.00;58.40;;;;;;4936206;29;20175;-91
2021/04/16 05:55:06;;;;;;;9.13;8.43;;;6.10;58.00;;;;;;4935359;29;20179;-88
2021/04/16 05:57:32;;;;;;;9.25;8.18;;;6.10;57.90;;;;;;4934722;29;20595;-85
2021/04/16 05:59:58;;;;;;;9.33;8.50;;;6.20;57.60;;;;;;4935457;29;20172;-88
2021/04/16 06:02:28;;;;;;;10.93;9.00;;;5.80;57.30;;;;;;4934817;29;20171;-85
2021/04/16 06:04:55;;;;;;;9.68;8.82;;;6.40;56.90;;;;;;4925703;29;20253;-89
2021/04/16 06:07:22;;;;;;;9.73;8.73;;;6.50;56.70;;;;;;4943474;28;20179;-89
2021/04/16 06:09:49;;;;;;;10.30;7.65;;;6.40;55.80;;;;;;4935378;29;20686;-88
2021/04/16 06:12:15;;;;;;;8.75;8.15;;;6.40;55.50;;;;;;4934984;29;20168;-88
2021/04/16 06:14:41;;;;;;;14.70;9.20;;;6.70;55.20;;;;;;4934569;29;20179;-88
2021/04/16 06:17:08;;;;;;;9.07;8.27;;;6.70;54.90;;;;;;4934763;29;20171;-87
2021/04/16 06:19:33;;;;;;;8.32;7.40;;;7.00;54.20;;;;;;4937880;29;20238;-88
2021/04/16 06:21:59;;;;;;;8.27;7.67;;;7.30;54.00;;;;;;4938044;28;20187;-87
2021/04/16 06:24:25;;;;;;;10.77;9.57;;;9.00;55.70;;;;;;4958411;28;20174;-86
2021/04/16 06:26:50;;;;;;;7.90;7.30;;;8.50;53.50;;;;;;4972486;28;20249;-85
2021/04/16 06:29:16;;;;;;;8.50;7.53;;;9.20;52.30;;;;;;4954812;28;20676;-86
2021/04/16 06:31:41;;;;;;;13.30;8.40;;;9.80;50.00;;;;;;4944765;28;20528;-87
2021/04/16 06:34:07;;;;;;;7.73;7.23;;;10.30;48.40;;;;;;4948894;29;20187;-86
2021/04/16 06:36:32;;;;;;;8.73;7.90;;;10.80;46.60;;;;;;4952113;29;20519;-86
2021/04/16 06:38:58;;;;;;;8.63;7.97;;;11.20;45.40;;;;;;4952880;29;20167;-86
2021/04/16 06:41:31;;;;;;;8.40;7.57;;;11.30;44.50;;;;;;4955606;28;20520;-85
2021/04/16 06:44:11;;;;;;;9.23;8.53;;;11.70;44.20;;;;;;4973399;28;20260;-86
2021/04/16 06:46:39;;;;;;;8.87;7.93;;;12.10;43.40;;;;;;4954977;28;20879;-86
2021/04/16 06:49:09;;;;;;;8.97;8.27;;;12.40;42.70;;;;;;4972768;28;20417;-86
2021/04/16 06:51:40;;;;;;;11.40;8.07;;;13.00;42.90;;;;;;4960384;28;20433;-87
2021/04/16 06:54:11;;;;;;;9.67;8.80;;;12.60;42.20;;;;;;4970019;28;20576;-92
2021/04/16 06:56:44;;;;;;;9.03;7.70;;;12.90;41.40;;;;;;4969746;28;20437;-90
2021/04/16 06:59:16;;;;;;;10.70;8.27;;;12.90;41.10;;;;;;4966153;28;20488;-87
2021/04/16 07:02:04;;;;;;;9.70;8.67;;;13.00;40.50;;;;;;4962815;28;20453;-88
2021/04/16 07:04:32;;;;;;;9.07;8.30;;;13.50;39.90;;;;;;4972512;28;20457;-90
2021/04/16 07:07:23;;;;;;;9.67;8.63;;;13.80;38.80;;;;;;4961992;28;20453;-92
2021/04/16 07:09:52;;;;;;;9.73;8.83;;;14.20;37.90;;;;;;4961433;28;20477;-87
2021/04/16 07:12:25;;;;;;;8.30;7.70;;;14.50;36.80;;;;;;4982826;28;20418;-87
2021/04/16 07:15:06;;;;;;;9.23;7.77;;;14.80;35.60;;;;;;4982230;28;20425;-89
2021/04/16 07:17:40;;;;;;;8.47;7.77;;;15.00;34.10;;;;;;4964112;28;20416;-90
2021/04/16 07:20:07;;;;;;;8.63;7.90;;;15.00;34.90;;;;;;4968081;28;20453;-92
2021/04/16 07:22:53;;;;;;;18.83;8.60;;;15.50;33.60;;;;;;4961395;28;20425;-90
2021/04/16 07:25:38;;;;;;;7.70;7.30;;;15.50;33.00;;;;;;4981617;28;20860;-91
2021/04/16 07:28:14;;;;;;;7.50;6.87;;;15.10;32.00;;;;;;4994678;28;20483;-90
2021/04/16 07:30:54;;;;;;;7.87;7.00;;;15.20;31.70;;;;;;4977807;28;20504;-92
2021/04/16 07:33:25;;;;;;;7.60;7.00;;;15.50;31.80;;;;;;4976964;28;20576;-89
2021/04/16 07:35:53;;;;;;;7.07;6.40;;;15.60;30.50;;;;;;4989029;28;20439;-90
2021/04/16 07:38:54;;;;;;;7.10;6.80;;;15.90;30.20;;;;;;4989505;28;20417;-91
2021/04/16 07:41:53;;;;;;;6.93;6.47;;;16.10;30.10;;;;;;4974757;28;20516;-89
2021/04/16 07:44:55;;;;;;;6.83;6.33;;;16.40;29.60;;;;;;4992594;28;20454;-92
2021/04/16 07:47:27;;;;;;;6.77;6.37;;;18.10;30.70;;;;;;4978533;28;20436;-90
2021/04/16 07:50:00;;;;;;;6.90;6.60;;;17.00;29.40;;;;;;4975703;28;20496;-89
2021/04/16 07:52:31;;;;;;;6.67;6.37;;;16.90;29.40;;;;;;4959361;28;20445;-88
2021/04/16 07:55:15;;;;;;;7.60;7.00;;;17.40;29.00;;;;;;4935810;29;20793;-87
2021/04/16 07:58:03;;;;;;;7.50;6.70;;;18.00;28.80;;;;;;4939353;29;20438;-88
2021/04/16 08:00:36;;;;;;;6.70;6.30;;;17.00;28.80;;;;;;4921047;29;20423;-90
2021/04/16 08:03:14;;;;;;;8.33;7.50;;;17.10;28.90;;;;;;4939980;29;20415;-89
2021/04/16 08:05:51;;;;;;;7.40;7.00;;;17.80;29.90;;;;;;4928876;29;20473;-89
2021/04/16 08:08:26;;;;;;;7.43;6.93;;;18.90;28.50;;;;;;4953971;29;20427;-88
2021/04/16 08:11:07;;;;;;;6.67;6.33;;;18.60;27.80;;;;;;4936374;29;20520;-91
2021/04/16 08:13:36;;;;;;;6.13;5.93;;;18.10;28.50;;;;;;4934625;29;20415;-93
2021/04/16 08:16:19;;;;;;;8.40;7.70;;;19.30;28.30;;;;;;4952540;29;20423;-94
2021/04/16 08:19:08;;;;;;;9.17;7.10;;;18.70;27.40;;;;;;4951509;29;20439;-90
2021/04/16 08:21:46;;;;;;;7.40;6.80;;;19.10;27.30;;;;;;4955822;29;20418;-91
2021/04/16 08:27:11;;;;;;;5.77;5.47;;;19.30;27.10;;;;;;5044448;23;20516;-91
2021/04/16 08:32:44;;;;;;;7.07;6.57;;;19.60;26.70;;;;;;5226979;23;20467;-92
2021/04/16 08:40:59;;;;;;;7.10;5.50;;;18.90;26.30;;;;;;5173428;23;20486;-90
2021/04/16 08:43:38;;;;;;;6.33;5.73;;;17.80;27.10;;;;;;5216814;23;20722;-91
2021/04/16 08:46:30;;;;;;;6.13;5.57;;;18.70;27.70;;;;;;4979569;28;20433;-91
2021/04/16 08:49:46;;;;;;;;;;;;;;;;;;;;;
2021/04/16 08:52:30;;;;;;;4.82;4.63;;;17.80;27.60;;;;;;4814734;23;10002044;-90
2021/04/16 08:55:20;;;;;;;4.83;4.53;;;16.50;27.60;;;;;;5051478;23;20230;-91
2021/04/16 08:57:53;;;;;;;5.50;5.00;;;14.60;27.70;;;;;;4986412;28;20420;-86
2021/04/16 09:00:39;;;;;;;6.40;4.70;;;14.00;27.50;;;;;;4992685;28;20767;-86
2021/04/16 09:03:17;;;;;;;5.30;4.80;;;15.00;28.30;;;;;;4992469;28;20750;-85
2021/04/16 09:06:01;;;;;;;4.93;4.63;;;14.60;28.60;;;;;;4986379;28;20916;-84
2021/04/16 09:08:41;;;;;;;7.30;3.50;;;14.60;28.70;;;;;;4983307;28;20816;-86
2021/04/16 09:11:09;;;;;;;3.63;3.53;;;15.60;29.60;;;;;;4975027;28;20483;-85
2021/04/16 09:13:41;;;;;;;4.00;3.70;;;14.20;28.60;;;;;;4976198;28;20431;-87
2021/04/16 09:16:16;;;;;;;3.77;3.57;;;13.40;28.50;;;;;;4957159;28;20433;-87
2021/04/16 09:18:53;;;;;;;4.30;4.00;;;14.30;28.80;;;;;;4973563;28;20571;-88
2021/04/16 09:21:23;;;;;;;3.10;3.00;;;14.90;27.80;;;;;;4973507;28;20425;-88
2021/04/16 09:23:49;;;;;;;4.10;3.83;;;15.10;27.60;;;;;;4973000;28;20834;-89
2021/04/16 09:26:43;;;;;;;3.40;3.30;;;15.50;27.60;;;;;;4962374;28;20433;-88
2021/04/16 09:29:40;;;;;;;3.33;3.23;;;16.30;27.10;;;;;;4947706;28;20243;-88
2021/04/16 09:32:34;;;;;;;4.40;4.00;;;17.50;26.80;;;;;;4967287;28;20416;-87
2021/04/16 09:35:04;;;;;;;5.30;4.87;;;17.90;25.70;;;;;;4993498;28;20419;-87
2021/04/16 09:37:34;;;;;;;3.63;3.43;;;18.90;26.40;;;;;;4994471;28;20411;-89
2021/04/16 09:40:18;;;;;;;4.23;3.97;;;20.50;25.90;;;;;;5002930;28;20413;-91
2021/04/16 09:43:05;;;;;;;3.60;3.50;;;20.20;25.00;;;;;;5006055;28;20443;-92
2021/04/16 09:45:30;;;;;;;3.10;2.97;;;19.30;24.00;;;;;;4972573;28;20431;-92
2021/04/16 09:48:30;;;;;;;3.53;3.47;;;20.80;24.80;;;;;;4989017;28;20412;-89
2021/04/16 09:50:59;;;;;;;2.93;2.80;;;21.00;24.50;;;;;;4975942;28;20232;-89
2021/04/16 09:53:35;;;;;;;2.87;2.80;;;20.60;24.40;;;;;;4983447;28;20455;-91
2021/04/16 09:56:01;;;;;;;3.33;3.23;;;21.00;24.00;;;;;;4985178;28;20540;-91
2021/04/16 09:58:39;;;;;;;3.43;3.33;;;21.30;23.90;;;;;;4990089;28;20532;-92
2021/04/16 10:01:20;;;;;;;3.50;3.30;;;21.40;23.80;;;;;;4992085;28;20413;-91
2021/04/16 10:04:16;;;;;;;3.23;3.03;;;21.40;24.00;;;;;;5008001;28;20475;-89
2021/04/16 10:06:45;;;;;;;2.77;2.67;;;20.60;23.60;;;;;;4983681;28;20464;-90
2021/04/16 10:09:28;;;;;;;11.20;8.90;;;21.30;23.30;;;;;;4973353;28;20418;-93
2021/04/16 10:12:01;;;;;;;2.50;2.43;;;22.30;23.30;;;;;;4988724;28;20418;-88
2021/04/16 10:14:36;;;;;;;6.90;3.77;;;22.00;23.20;;;;;;4986455;28;20471;-89
2021/04/16 10:17:14;;;;;;;3.43;3.33;;;21.80;23.20;;;;;;4991412;28;20439;-91
2021/04/16 10:20:07;;;;;;;3.40;3.30;;;20.90;23.40;;;;;;4989493;28;20419;-86
2021/04/16 10:22:36;;;;;;;3.83;2.70;;;20.00;23.30;;;;;;5007442;28;20472;-89
2021/04/16 10:31:46;;;;;;;2.50;2.40;;;16.90;24.70;;;;;;4648264;28;10000363;-86
2021/04/16 12:38:24;;;;;;;2.30;2.10;;;22.10;21.90;;;;;;5110493;28;20460;-90
2021/04/16 12:40:53;;;;;;;3.20;3.00;;;22.30;22.30;;;;;;5092356;28;20424;-95
2021/04/16 12:43:20;;;;;;;3.47;3.37;;;22.20;22.70;;;;;;5070681;28;20461;-90
2021/04/16 12:45:51;;;;;;;3.80;3.60;;;21.90;22.40;;;;;;5107171;28;20433;-90
2021/04/16 12:48:17;;;;;;;2.83;2.73;;;21.90;23.00;;;;;;5091474;28;20389;-92
2021/04/16 12:50:42;;;;;;;3.43;3.23;;;21.00;22.50;;;;;;5077150;28;20457;-90
2021/04/16 12:53:08;;;;;;;4.23;3.83;;;21.20;23.50;;;;;;5112393;28;20208;-89
2021/04/16 12:55:35;;;;;;;4.00;3.57;;;21.90;23.10;;;;;;5111244;28;20252;-89
2021/04/16 12:58:07;;;;;;;10.53;9.63;;;22.40;22.60;;;;;;5113197;28;20181;-92
2021/04/16 13:00:41;;;;;;;4.07;3.97;;;21.80;22.70;;;;;;5130445;28;20415;-90
2021/04/16 13:03:09;;;;;;;3.10;2.93;;;22.40;23.40;;;;;;5111678;28;20431;-88
2021/04/16 13:05:35;;;;;;;2.80;2.80;;;22.60;23.30;;;;;;5121628;28;20403;-82
2021/04/16 13:08:02;;;;;;;4.80;4.37;;;22.30;23.00;;;;;;5117001;28;20407;-88
2021/04/16 13:10:29;;;;;;;3.03;2.90;;;21.50;22.50;;;;;;5116596;28;20431;-87
2021/04/16 13:12:54;;;;;;;3.20;3.00;;;22.70;23.60;;;;;;5098081;28;20417;-88
2021/04/16 13:15:21;;;;;;;3.40;3.30;;;22.60;22.70;;;;;;5114832;28;20854;-87
2021/04/16 13:18:14;;;;;;;3.00;2.90;;;22.90;23.20;;;;;;5117601;28;20244;-89
2021/04/16 13:20:44;;;;;;;25.33;17.50;;;22.40;23.00;;;;;;5097814;28;20492;-90
2021/04/16 13:23:09;;;;;;;3.97;3.67;;;21.00;23.30;;;;;;5116067;28;20512;-89
2021/04/16 13:25:35;;;;;;;5.47;4.63;;;19.50;23.10;;;;;;5105950;28;20819;-90
2021/04/16 13:28:00;;;;;;;4.10;3.70;;;19.60;24.00;;;;;;5096497;28;20194;-92
2021/04/16 13:30:29;;;;;;;3.00;3.00;;;19.40;24.20;;;;;;5096530;28;20193;-89
2021/04/16 13:32:58;;;;;;;3.10;2.90;;;20.50;25.00;;;;;;5098939;28;20158;-89
2021/04/16 13:35:29;;;;;;;3.27;3.17;;;18.20;23.90;;;;;;5098245;28;20474;-90
2021/04/16 13:37:55;;;;;;;3.50;3.40;;;20.40;25.40;;;;;;5077351;28;20416;-89
2021/04/16 13:40:22;;;;;;;3.70;3.50;;;19.00;24.70;;;;;;5101459;28;20424;-93
2021/04/16 13:42:48;;;;;;;3.00;3.00;;;19.30;24.60;;;;;;5109980;28;20424;-88
2021/04/16 13:45:14;;;;;;;3.20;3.00;;;21.90;27.00;;;;;;5098534;28;20430;-87
2021/04/16 13:47:44;;;;;;;2.97;2.77;;;19.90;24.20;;;;;;5096530;28;20211;-88
2021/04/16 13:50:12;;;;;;;4.20;2.90;;;19.90;24.00;;;;;;5096248;28;20408;-87
2021/04/16 13:52:38;;;;;;;4.57;3.10;;;18.50;24.00;;;;;;5095838;28;20919;-86
2021/04/16 13:55:04;;;;;;;18.87;8.23;;;17.30;23.80;;;;;;5095714;28;20524;-87
2021/04/16 13:57:30;;;;;;;16.83;9.93;;;18.20;24.40;;;;;;5095337;28;20222;-87
2021/04/16 13:59:55;;;;;;;8.47;7.00;;;18.30;24.40;;;;;;5094788;28;20507;-87
2021/04/16 14:02:31;;;;;;;4.30;3.93;;;18.90;24.40;;;;;;5095659;28;20178;-87
2021/04/16 14:04:56;;;;;;;25.40;19.70;;;19.30;23.80;;;;;;5093665;28;20303;-87
2021/04/16 14:07:22;;;;;;;5.63;5.23;;;19.20;23.90;;;;;;5094706;28;20458;-87
2021/04/16 14:09:48;;;;;;;5.23;4.97;;;19.40;23.70;;;;;;5080104;28;20192;-88
2021/04/16 14:12:15;;;;;;;6.27;5.60;;;19.30;23.50;;;;;;5099445;28;20412;-90
2021/04/16 14:14:41;;;;;;;3.00;2.90;;;19.10;23.80;;;;;;5099411;28;20202;-87
2021/04/16 14:17:13;;;;;;;3.80;3.63;;;18.40;23.80;;;;;;5097782;28;20443;-88
2021/04/16 14:19:53;;;;;;;2.60;2.60;;;18.60;24.00;;;;;;5096534;28;20408;-88
2021/04/16 14:22:36;;;;;;;2.63;2.63;;;19.00;24.00;;;;;;5077871;28;20436;-89
2021/04/16 14:25:02;;;;;;;3.60;2.83;;;19.20;24.30;;;;;;5096714;28;20416;-84
2021/04/16 14:27:27;;;;;;;3.57;3.37;;;19.40;24.30;;;;;;5098846;28;20416;-86
2021/04/16 14:29:53;;;;;;;3.20;3.07;;;19.70;23.90;;;;;;5102033;28;20408;-90
2021/04/16 14:32:26;;;;;;;4.57;4.30;;;19.90;23.90;;;;;;5092037;28;20249;-88
2021/04/16 14:34:52;;;;;;;4.20;3.77;;;19.80;23.60;;;;;;5075426;28;20239;-93
2021/04/16 14:37:18;;;;;;;4.90;4.70;;;19.30;24.00;;;;;;5106407;28;20925;-91
2021/04/16 14:39:45;;;;;;;5.77;5.00;;;18.60;24.00;;;;;;5091624;28;20439;-90
2021/04/16 14:42:14;;;;;;;8.63;7.77;;;19.40;24.80;;;;;;5108117;28;20424;-92
2021/04/16 14:44:41;;;;;;;2.83;2.73;;;19.10;24.40;;;;;;5106677;28;20431;-90
2021/04/16 14:47:08;;;;;;;3.60;3.40;;;18.70;26.10;;;;;;5107936;28;20416;-88
2021/04/16 14:50:00;;;;;;;4.60;3.57;;;19.30;26.10;;;;;;5108423;28;20428;-88
2021/04/16 14:52:27;;;;;;;4.70;4.30;;;21.60;26.60;;;;;;5089818;28;20463;-89
2021/04/16 14:54:55;;;;;;;3.60;3.50;;;18.90;24.70;;;;;;5094272;28;20489;-85
2021/04/16 14:57:35;;;;;;;4.50;3.57;;;18.90;24.30;;;;;;5093164;28;20408;-84
2021/04/16 15:00:04;;;;;;;4.50;4.20;;;19.00;24.50;;;;;;5092503;28;20423;-83
2021/04/16 15:02:29;;;;;;;3.10;3.00;;;17.20;23.70;;;;;;5097038;28;20407;-83
2021/04/16 15:04:55;;;;;;;3.97;3.77;;;18.60;24.20;;;;;;5094191;28;20414;-84
2021/04/16 15:07:26;;;;;;;4.30;4.00;;;17.50;24.30;;;;;;5101292;28;20509;-83
2021/04/16 15:09:58;;;;;;;3.77;3.57;;;16.80;25.00;;;;;;5094809;28;20180;-83
2021/04/16 15:12:26;;;;;;;7.80;7.20;;;16.40;25.40;;;;;;5103572;28;20408;-84
2021/04/16 15:14:56;;;;;;;3.37;3.27;;;17.00;26.30;;;;;;4754607;28;9999587;-84
2021/04/16 15:17:23;;;;;;;2.87;2.77;;;16.70;25.50;;;;;;5110339;28;20175;-83
2021/04/16 15:19:52;;;;;;;5.13;4.63;;;16.80;25.70;;;;;;5110135;28;20441;-86
2021/04/16 15:22:20;;;;;;;4.50;4.20;;;16.70;25.50;;;;;;5111099;28;20435;-83
2021/04/16 15:24:46;;;;;;;15.87;12.20;;;18.70;26.20;;;;;;5089856;28;20521;-85
2021/04/16 15:27:15;;;;;;;36.63;16.40;;;16.80;25.40;;;;;;5090780;28;20412;-82
2021/04/16 15:29:44;;;;;;;6.30;5.80;;;15.90;25.00;;;;;;5090042;28;20884;-85
2021/04/16 15:32:16;;;;;;;4.27;3.90;;;16.80;25.90;;;;;;5090180;28;20420;-83